Time;durP1;ratioP1;P1;durP2;ratioP2;P2;SDS_P1;SDS_P2;PMS_P1;PMS_P2;Temp;Humidity;BMP_temperature;BMP_pressure;BME280_temperature;BME280_humidity;BME280_pressure;Samples;Min_cycle;Max_cycle;Signal;HPM_P1;HPM_P2
2022/08/22 00:00:12;;;;;;;1.92;0.30;;;17.60;99.90;;;;;;5082472;28;20036;-78
2022/08/22 00:02:54;;;;;;;2.03;0.30;;;17.60;99.90;;;;;;5099818;28;20024;-78
2022/08/22 00:05:38;;;;;;;0.90;0.25;;;17.60;99.90;;;;;;5088964;28;20024;-79
2022/08/22 00:08:25;;;;;;;1.65;0.30;;;17.70;99.90;;;;;;5088842;28;20080;-78
2022/08/22 00:11:02;;;;;;;1.42;0.30;;;17.70;99.90;;;;;;5101465;28;20047;-79
2022/08/22 00:13:38;;;;;;;1.67;0.28;;;17.60;99.90;;;;;;5090232;28;20024;-79
2022/08/22 00:16:32;;;;;;;2.97;0.30;;;17.50;99.90;;;;;;5101453;28;20111;-79
2022/08/22 00:19:24;;;;;;;2.38;0.30;;;17.60;99.90;;;;;;5098042;28;20369;-79
2022/08/22 00:22:00;;;;;;;2.92;0.40;;;17.50;99.90;;;;;;5097650;28;20111;-78
2022/08/22 00:24:34;;;;;;;1.92;0.30;;;17.50;99.90;;;;;;5079920;28;20112;-78
2022/08/22 00:27:11;;;;;;;2.08;0.40;;;17.50;99.90;;;;;;5091296;28;20034;-78
2022/08/22 00:29:43;;;;;;;1.55;0.30;;;17.50;99.90;;;;;;5070269;28;20490;-78
2022/08/22 00:32:19;;;;;;;2.08;0.30;;;17.50;99.90;;;;;;5086928;28;20035;-78
2022/08/22 00:35:10;;;;;;;1.77;0.30;;;17.50;99.90;;;;;;5069738;28;20414;-78
2022/08/22 00:37:55;;;;;;;1.30;0.22;;;17.40;99.90;;;;;;5096799;28;20028;-78
2022/08/22 00:40:56;;;;;;;2.63;0.30;;;17.40;99.90;;;;;;5098707;28;20040;-78
2022/08/22 00:43:30;;;;;;;2.67;0.38;;;17.30;99.90;;;;;;5095162;28;20027;-78
2022/08/22 00:46:13;;;;;;;2.42;0.40;;;17.20;99.90;;;;;;5078326;28;20088;-78
2022/08/22 00:48:42;;;;;;;2.97;0.30;;;17.30;99.90;;;;;;5086525;28;20092;-78
2022/08/22 00:51:26;;;;;;;1.77;0.30;;;17.20;99.90;;;;;;5080945;28;20097;-79
2022/08/22 00:54:03;;;;;;;2.00;0.30;;;17.30;99.90;;;;;;5084212;28;20031;-78
2022/08/22 00:56:28;;;;;;;1.67;0.30;;;17.30;99.90;;;;;;5099207;28;20065;-78
2022/08/22 00:59:15;;;;;;;2.85;0.40;;;17.20;99.90;;;;;;5072082;28;20055;-78
2022/08/22 01:02:00;;;;;;;2.15;0.40;;;17.10;99.90;;;;;;5098957;28;20132;-78
2022/08/22 01:04:42;;;;;;;1.65;0.35;;;17.00;99.90;;;;;;5078327;28;20156;-78
2022/08/22 01:07:32;;;;;;;1.10;0.30;;;16.90;99.90;;;;;;5079850;28;20480;-78
2022/08/22 01:10:15;;;;;;;1.90;0.40;;;16.70;99.90;;;;;;5098901;28;20530;-78
2022/08/22 01:13:09;;;;;;;2.28;0.40;;;16.60;99.90;;;;;;5100819;28;20020;-78
2022/08/22 01:15:38;;;;;;;5.05;0.40;;;16.70;99.90;;;;;;5100930;28;20450;-78
2022/08/22 01:18:07;;;;;;;1.63;0.50;;;16.70;99.90;;;;;;5086695;28;20043;-78
2022/08/22 01:20:51;;;;;;;3.53;0.40;;;16.70;99.90;;;;;;5079753;28;20349;-78
2022/08/22 01:23:32;;;;;;;1.92;0.38;;;16.70;99.90;;;;;;5079161;28;20058;-78
2022/08/22 01:26:25;;;;;;;3.78;0.50;;;16.60;99.90;;;;;;5098341;28;20020;-79
2022/08/22 01:29:38;;;;;;;1.50;0.30;;;16.70;99.90;;;;;;5086566;28;20063;-78
2022/08/22 01:32:25;;;;;;;1.20;0.38;;;16.60;99.90;;;;;;5005950;28;20030;-78
2022/08/22 01:35:09;;;;;;;1.30;0.40;;;16.60;99.90;;;;;;5000900;28;20046;-79
2022/08/22 01:37:58;;;;;;;2.75;0.40;;;16.60;99.90;;;;;;5007220;28;20057;-79
2022/08/22 01:40:51;;;;;;;4.00;0.60;;;16.60;99.90;;;;;;5004908;28;20045;-78
2022/08/22 01:43:45;;;;;;;2.22;0.30;;;16.60;99.90;;;;;;4983705;28;20046;-78
2022/08/22 01:46:22;;;;;;;1.30;0.40;;;16.60;99.90;;;;;;5005034;28;20029;-78
2022/08/22 01:49:11;;;;;;;1.65;0.60;;;16.60;99.90;;;;;;5001197;28;20132;-78
2022/08/22 01:51:52;;;;;;;3.10;0.40;;;16.60;99.90;;;;;;4999160;28;20038;-78
2022/08/22 01:54:34;;;;;;;3.28;0.40;;;16.60;99.90;;;;;;5004037;28;20068;-78
2022/08/22 01:57:04;;;;;;;2.42;0.57;;;16.60;99.90;;;;;;4984914;28;20026;-79
2022/08/22 01:59:35;;;;;;;2.05;0.40;;;16.60;99.90;;;;;;4990589;28;20501;-78
2022/08/22 02:02:14;;;;;;;2.10;0.43;;;16.60;99.90;;;;;;5006129;28;20046;-79
2022/08/22 02:05:09;;;;;;;2.10;0.70;;;16.60;99.90;;;;;;4982211;28;20041;-78
2022/08/22 02:07:47;;;;;;;2.42;0.40;;;16.50;99.90;;;;;;5003804;28;20103;-78
2022/08/22 02:10:43;;;;;;;5.30;0.50;;;16.60;99.90;;;;;;5065856;28;20047;-78
2022/08/22 02:13:40;;;;;;;2.35;0.40;;;16.50;99.90;;;;;;5064912;28;20044;-78
2022/08/22 02:16:13;;;;;;;2.13;0.43;;;16.40;99.90;;;;;;5047002;28;20036;-78
2022/08/22 02:19:03;;;;;;;3.30;0.90;;;16.40;99.90;;;;;;5048818;28;20461;-78
2022/08/22 02:21:43;;;;;;;3.85;0.60;;;16.30;99.90;;;;;;5062907;28;20036;-78
2022/08/22 02:24:33;;;;;;;1.92;0.40;;;16.30;99.90;;;;;;5064606;28;20037;-78
2022/08/22 02:27:31;;;;;;;1.92;0.60;;;16.40;99.90;;;;;;5049032;28;20561;-79
2022/08/22 02:29:57;;;;;;;1.60;0.50;;;16.40;99.90;;;;;;5048760;28;20401;-78
2022/08/22 02:32:44;;;;;;;3.70;0.50;;;16.40;99.90;;;;;;5048536;28;20143;-78
2022/08/22 02:35:26;;;;;;;2.10;0.43;;;16.40;99.90;;;;;;5064816;28;20047;-78
2022/08/22 02:37:56;;;;;;;1.95;0.40;;;16.50;99.90;;;;;;5065442;28;20064;-78
2022/08/22 02:40:29;;;;;;;1.63;0.40;;;16.50;99.90;;;;;;5048500;28;20063;-78
2022/08/22 02:43:17;;;;;;;1.63;0.40;;;16.50;99.90;;;;;;5048443;28;20480;-79
2022/08/22 02:46:11;;;;;;;1.33;0.35;;;16.50;99.90;;;;;;5076801;28;20486;-78
2022/08/22 02:48:46;;;;;;;1.65;0.40;;;16.50;99.90;;;;;;5068799;28;20480;-78
2022/08/22 02:51:24;;;;;;;1.52;0.40;;;16.50;99.90;;;;;;5093069;28;20472;-78
2022/08/22 02:53:55;;;;;;;3.67;0.52;;;16.50;99.90;;;;;;5095680;28;20459;-79
2022/08/22 02:56:34;;;;;;;2.33;0.50;;;16.60;99.90;;;;;;5079578;28;20036;-78
2022/08/22 02:59:22;;;;;;;2.53;0.60;;;16.60;99.90;;;;;;5098542;28;20364;-78
2022/08/22 03:01:50;;;;;;;2.10;0.50;;;16.60;99.90;;;;;;5080068;28;20042;-78
2022/08/22 03:04:20;;;;;;;2.08;0.43;;;16.60;99.90;;;;;;5095672;28;20495;-78
2022/08/22 03:07:17;;;;;;;1.52;0.50;;;16.60;99.90;;;;;;5072659;28;20099;-78
2022/08/22 03:10:01;;;;;;;2.47;0.60;;;16.60;99.90;;;;;;5097220;28;20449;-79
2022/08/22 03:13:05;;;;;;;1.73;0.60;;;16.60;99.90;;;;;;5085349;28;20482;-78
2022/08/22 03:16:00;;;;;;;4.80;0.50;;;16.80;99.90;;;;;;5097387;28;20048;-78
2022/08/22 03:18:53;;;;;;;5.55;0.70;;;16.70;99.90;;;;;;5079731;28;20093;-78
2022/08/22 03:21:35;;;;;;;5.50;0.68;;;16.70;99.90;;;;;;5096696;28;20517;-78
2022/08/22 03:24:10;;;;;;;2.25;0.63;;;16.70;99.90;;;;;;5093070;28;20017;-79
2022/08/22 03:26:46;;;;;;;3.25;0.70;;;16.80;99.90;;;;;;5077383;28;20043;-78
2022/08/22 03:29:22;;;;;;;2.38;0.60;;;16.80;99.90;;;;;;5096588;28;20047;-78
2022/08/22 03:32:12;;;;;;;2.33;0.60;;;16.70;99.90;;;;;;5075954;28;20060;-79
2022/08/22 03:34:52;;;;;;;;;;;16.80;99.90;;;;;;5095342;28;20027;-78
2022/08/22 03:37:23;;;;;;;1.83;0.50;;;16.80;99.90;;;;;;5063396;28;19908;-79
2022/08/22 03:40:03;;;;;;;3.40;0.60;;;16.80;99.90;;;;;;5095392;28;20040;-79
2022/08/22 03:42:48;;;;;;;2.92;0.52;;;16.80;99.90;;;;;;5101718;28;20030;-78
2022/08/22 03:45:58;;;;;;;4.35;0.75;;;16.80;99.90;;;;;;5077492;28;20036;-78
2022/08/22 03:48:39;;;;;;;1.83;0.60;;;16.80;99.90;;;;;;5081864;28;20128;-79
2022/08/22 03:51:31;;;;;;;3.42;0.50;;;16.80;99.90;;;;;;5065988;28;20130;-78
2022/08/22 03:54:14;;;;;;;2.50;0.90;;;16.80;99.90;;;;;;5096551;28;20476;-78
2022/08/22 03:56:40;;;;;;;2.03;0.70;;;16.70;99.90;;;;;;5078340;28;20380;-79
2022/08/22 03:59:28;;;;;;;2.88;0.60;;;16.70;99.90;;;;;;5075670;28;20042;-79
2022/08/22 04:02:05;;;;;;;3.38;0.80;;;16.70;99.90;;;;;;5094807;28;20012;-78
2022/08/22 04:05:09;;;;;;;3.58;0.70;;;16.70;99.90;;;;;;5097423;28;20024;-78
2022/08/22 04:07:42;;;;;;;3.42;0.80;;;16.70;99.90;;;;;;5098945;28;20448;-78
2022/08/22 04:10:43;;;;;;;5.68;0.98;;;16.60;99.90;;;;;;5094975;28;20093;-78
2022/08/22 04:13:51;;;;;;;3.47;0.68;;;16.60;99.90;;;;;;5065288;28;20845;-78
2022/08/22 04:16:55;;;;;;;3.92;0.60;;;16.60;99.90;;;;;;5071717;28;20042;-78
2022/08/22 04:19:48;;;;;;;3.92;0.80;;;16.60;99.90;;;;;;5079132;28;20044;-78
2022/08/22 04:22:52;;;;;;;1.73;0.63;;;16.60;99.90;;;;;;5087177;28;20111;-78
2022/08/22 04:25:34;;;;;;;1.73;0.52;;;16.60;99.90;;;;;;5069618;28;20066;-78
2022/08/22 04:28:22;;;;;;;3.63;0.80;;;16.60;99.90;;;;;;5083045;28;20043;-78
2022/08/22 04:30:55;;;;;;;3.58;0.93;;;16.50;99.90;;;;;;5095974;28;20512;-78
2022/08/22 04:33:38;;;;;;;3.75;0.90;;;16.50;99.90;;;;;;5072330;28;20020;-79
2022/08/22 04:36:25;;;;;;;3.60;0.80;;;16.40;99.90;;;;;;5089861;28;20101;-78
2022/08/22 04:39:01;;;;;;;4.35;1.20;;;16.50;99.90;;;;;;5081493;28;20051;-78
2022/08/22 04:42:17;;;;;;;2.63;1.00;;;16.50;99.90;;;;;;5097946;28;20514;-78
2022/08/22 04:45:04;;;;;;;4.32;1.15;;;16.40;99.90;;;;;;5096747;28;20053;-79
2022/08/22 04:47:45;;;;;;;4.22;1.63;;;16.40;99.90;;;;;;5070301;28;20028;-78
2022/08/22 04:50:26;;;;;;;3.95;1.27;;;16.30;99.90;;;;;;5067420;28;20044;-78
2022/08/22 04:53:11;;;;;;;3.40;1.08;;;16.40;99.90;;;;;;5071668;28;20024;-78
2022/08/22 04:55:45;;;;;;;4.57;1.30;;;16.50;99.90;;;;;;5091817;28;20035;-78
2022/08/22 04:58:25;;;;;;;3.60;0.90;;;16.40;99.90;;;;;;5099535;28;20028;-78
2022/08/22 05:01:05;;;;;;;4.32;1.20;;;16.50;99.90;;;;;;5079667;28;20028;-78
2022/08/22 05:03:35;;;;;;;2.90;0.90;;;16.40;99.90;;;;;;5097683;28;20016;-78
2022/08/22 05:06:04;;;;;;;3.83;1.00;;;16.50;99.90;;;;;;5087014;28;20387;-78
2022/08/22 05:08:34;;;;;;;6.25;1.13;;;16.50;99.90;;;;;;5080252;28;20028;-78
2022/08/22 05:11:04;;;;;;;4.68;1.25;;;16.50;99.90;;;;;;5070945;28;20040;-78
2022/08/22 05:13:52;;;;;;;7.30;1.45;;;16.60;99.90;;;;;;5099187;28;20012;-78
2022/08/22 05:16:26;;;;;;;2.53;1.33;;;16.60;99.90;;;;;;5071209;28;20426;-79
2022/08/22 05:19:03;;;;;;;2.47;0.80;;;16.60;99.90;;;;;;5096410;28;20051;-78
2022/08/22 05:21:35;;;;;;;1.60;0.70;;;16.60;99.90;;;;;;5088807;28;20089;-79
2022/08/22 05:24:26;;;;;;;4.43;1.13;;;16.60;99.90;;;;;;5065116;28;20491;-78
2022/08/22 05:26:54;;;;;;;3.53;0.70;;;16.70;99.90;;;;;;5054374;28;20040;-78
2022/08/22 05:29:27;;;;;;;4.32;0.90;;;16.80;99.90;;;;;;5071114;28;20089;-78
2022/08/22 05:31:56;;;;;;;3.67;1.33;;;16.70;99.90;;;;;;5100511;28;20031;-78
2022/08/22 05:34:24;;;;;;;3.30;1.13;;;16.70;99.90;;;;;;5083891;28;20063;-78
2022/08/22 05:37:23;;;;;;;3.70;0.95;;;16.70;99.90;;;;;;5098362;28;20023;-79
2022/08/22 05:39:54;;;;;;;4.07;0.98;;;16.80;99.90;;;;;;5087671;28;20059;-78
2022/08/22 05:42:26;;;;;;;4.18;1.27;;;16.80;99.90;;;;;;5098817;28;20023;-79
2022/08/22 05:44:52;;;;;;;2.78;0.63;;;16.80;99.90;;;;;;5071640;28;20544;-79
2022/08/22 05:47:40;;;;;;;5.43;1.30;;;16.80;99.90;;;;;;5087383;28;20044;-80
2022/08/22 05:50:33;;;;;;;2.38;0.98;;;16.80;99.90;;;;;;5077238;28;20055;-79
2022/08/22 05:53:06;;;;;;;2.05;0.82;;;16.90;99.90;;;;;;5078497;28;20032;-79
2022/08/22 05:55:57;;;;;;;3.72;0.85;;;17.00;99.90;;;;;;5097624;27;20123;-79
2022/08/22 05:58:45;;;;;;;4.00;1.05;;;17.00;99.90;;;;;;5080268;28;20023;-79
2022/08/22 06:01:10;;;;;;;4.78;1.15;;;17.10;99.90;;;;;;5065698;28;20119;-79
2022/08/22 06:03:46;;;;;;;2.28;0.80;;;17.10;99.90;;;;;;5065668;28;20111;-78
2022/08/22 06:06:15;;;;;;;3.47;0.75;;;17.20;99.90;;;;;;5100080;28;20027;-79
2022/08/22 06:08:47;;;;;;;2.03;0.70;;;17.20;99.90;;;;;;5096159;28;20580;-79
2022/08/22 06:11:25;;;;;;;3.45;0.95;;;17.20;99.90;;;;;;5082506;28;20054;-79
2022/08/22 06:14:02;;;;;;;3.70;0.90;;;17.20;99.90;;;;;;5076428;28;20024;-79
2022/08/22 06:16:46;;;;;;;3.58;0.95;;;17.20;99.90;;;;;;5087281;28;20042;-79
2022/08/22 06:19:16;;;;;;;2.78;0.90;;;17.30;99.90;;;;;;5098843;28;20115;-80
2022/08/22 06:21:45;;;;;;;2.28;0.85;;;17.30;99.90;;;;;;5081696;28;20031;-78
2022/08/22 06:24:20;;;;;;;3.28;1.20;;;17.30;99.90;;;;;;5087727;28;20625;-79
2022/08/22 06:26:49;;;;;;;5.07;1.00;;;17.50;99.90;;;;;;5080407;28;20468;-80
2022/08/22 06:29:28;;;;;;;3.25;0.70;;;17.50;99.90;;;;;;5078078;28;20046;-79
2022/08/22 06:31:55;;;;;;;2.55;0.70;;;17.50;99.90;;;;;;5095488;28;20032;-79
2022/08/22 06:34:29;;;;;;;3.78;1.45;;;17.50;99.90;;;;;;5076367;28;20093;-79
2022/08/22 06:36:57;;;;;;;2.17;0.90;;;17.60;99.90;;;;;;5079966;28;20034;-79
2022/08/22 06:39:37;;;;;;;3.90;0.80;;;17.70;99.90;;;;;;5070517;28;20498;-79
2022/08/22 06:42:29;;;;;;;2.75;1.00;;;17.80;99.90;;;;;;5087759;28;20019;-78
2022/08/22 06:45:11;;;;;;;1.73;0.60;;;17.70;99.90;;;;;;5091350;28;20027;-79
2022/08/22 06:47:45;;;;;;;3.22;1.05;;;17.80;99.90;;;;;;5081697;28;20487;-78
2022/08/22 06:50:18;;;;;;;3.42;1.30;;;17.70;99.90;;;;;;5094684;28;20035;-79
2022/08/22 06:53:12;;;;;;;4.20;0.90;;;17.80;99.90;;;;;;5068092;28;20020;-80
2022/08/22 06:55:42;;;;;;;4.30;1.55;;;17.80;99.90;;;;;;5093682;28;20037;-78
2022/08/22 06:58:27;;;;;;;4.40;1.67;;;17.80;99.90;;;;;;5064480;28;20028;-80
2022/08/22 07:00:57;;;;;;;7.10;2.17;;;17.80;99.90;;;;;;5073852;28;20051;-80
2022/08/22 07:03:32;;;;;;;;;;;17.70;99.90;;;;;;5097605;28;20089;-80
2022/08/22 07:05:58;;;;;;;6.18;2.20;;;17.70;99.90;;;;;;5100890;27;20447;-79
2022/08/22 07:08:25;;;;;;;5.90;2.47;;;17.80;99.90;;;;;;5088638;28;20024;-79
2022/08/22 07:11:07;;;;;;;9.27;2.97;;;17.90;99.90;;;;;;5091930;28;20108;-79
2022/08/22 07:13:36;;;;;;;3.63;2.15;;;17.80;99.90;;;;;;5068266;28;20476;-79
2022/08/22 07:16:06;;;;;;;5.40;2.60;;;17.90;99.90;;;;;;5086539;27;20110;-79
2022/08/22 07:18:32;;;;;;;4.53;1.83;;;17.80;99.90;;;;;;5086447;28;20403;-79
2022/08/22 07:21:06;;;;;;;4.65;2.05;;;17.90;99.90;;;;;;5088081;28;20043;-79
2022/08/22 07:23:34;;;;;;;5.78;1.50;;;18.00;99.90;;;;;;5065085;28;20072;-79
2022/08/22 07:26:37;;;;;;;3.25;1.45;;;18.10;99.90;;;;;;5083163;28;20149;-78
2022/08/22 07:29:44;;;;;;;3.55;1.42;;;18.30;99.90;;;;;;5089342;28;20110;-80
2022/08/22 07:32:24;;;;;;;3.63;1.30;;;18.40;99.90;;;;;;5053697;28;20055;-79
2022/08/22 07:34:55;;;;;;;4.95;1.73;;;18.50;99.90;;;;;;5064396;28;20043;-80
2022/08/22 07:37:36;;;;;;;3.83;1.58;;;18.40;99.90;;;;;;5064020;28;20100;-79
2022/08/22 07:40:08;;;;;;;3.45;1.13;;;18.60;99.90;;;;;;5063070;28;20060;-80
2022/08/22 07:42:42;;;;;;;3.03;1.42;;;18.60;99.90;;;;;;5050493;28;20537;-81
2022/08/22 07:45:36;;;;;;;5.43;1.92;;;18.60;99.90;;;;;;5046255;28;20032;-79
2022/08/22 07:48:19;;;;;;;5.50;1.90;;;18.60;99.90;;;;;;5039779;28;20127;-79
2022/08/22 07:50:59;;;;;;;4.07;1.00;;;18.70;99.90;;;;;;5047549;28;20094;-80
2022/08/22 07:53:45;;;;;;;2.88;1.02;;;19.00;99.90;;;;;;5049746;28;20031;-80
2022/08/22 07:56:21;;;;;;;4.65;1.20;;;19.20;99.90;;;;;;5049900;28;20139;-80
2022/08/22 07:58:52;;;;;;;3.95;1.02;;;19.50;99.90;;;;;;5066997;28;20442;-79
2022/08/22 08:01:20;;;;;;;2.92;0.73;;;19.70;99.90;;;;;;5058807;28;20036;-79
2022/08/22 08:03:55;;;;;;;3.85;0.70;;;19.80;99.90;;;;;;5094732;28;20090;-79
2022/08/22 08:06:23;;;;;;;3.17;0.73;;;20.20;99.90;;;;;;5085500;28;20032;-80
2022/08/22 08:08:50;;;;;;;4.03;0.95;;;20.30;99.90;;;;;;5083236;28;20055;-82
2022/08/22 08:11:19;;;;;;;4.47;1.08;;;20.80;99.90;;;;;;5088196;28;20032;-79
2022/08/22 08:13:51;;;;;;;3.47;0.75;;;21.20;99.90;;;;;;5100072;28;20035;-79
2022/08/22 08:16:21;;;;;;;3.38;0.80;;;21.70;99.90;;;;;;5087436;28;20039;-78
2022/08/22 08:18:49;;;;;;;4.55;1.20;;;21.90;99.90;;;;;;5080384;28;20127;-76
2022/08/22 08:21:38;;;;;;;3.10;1.10;;;22.10;99.90;;;;;;5086754;28;20072;-77
2022/08/22 08:24:07;;;;;;;3.35;1.02;;;21.70;99.90;;;;;;5089447;28;20119;-78
2022/08/22 08:28:32;;;;;;;4.28;1.10;;;21.50;99.90;;;;;;5068928;28;20031;-79
2022/08/22 08:29:30;;;;;;;2.97;0.73;;;21.10;99.90;;;;;;5097629;28;20056;-79
2022/08/22 08:31:59;;;;;;;5.97;0.65;;;20.90;99.90;;;;;;5079828;28;20476;-79
2022/08/22 08:34:26;;;;;;;4.18;0.63;;;21.00;99.90;;;;;;5097515;28;20020;-79
2022/08/22 08:37:08;;;;;;;4.28;0.75;;;21.00;99.90;;;;;;5081573;28;20115;-79
2022/08/22 08:39:39;;;;;;;3.80;0.70;;;21.00;99.90;;;;;;5085741;28;20032;-80
2022/08/22 08:46:06;;;;;;;2.83;0.55;;;21.70;99.90;;;;;;5083648;28;20035;-79
2022/08/22 08:48:56;;;;;;;2.60;0.70;;;22.20;99.90;;;;;;5084202;28;20065;-81
2022/08/22 08:51:40;;;;;;;2.38;0.47;;;22.40;99.90;;;;;;5101537;28;20035;-76
2022/08/22 08:54:50;;;;;;;1.88;0.60;;;22.30;99.90;;;;;;5083456;28;20036;-77
2022/08/22 08:57:44;;;;;;;2.25;0.70;;;22.00;99.90;;;;;;5087522;28;20051;-77
2022/08/22 09:00:41;;;;;;;2.90;0.75;;;22.00;99.90;;;;;;5098908;28;20447;-77
2022/08/22 09:03:25;;;;;;;6.05;1.55;;;21.90;99.90;;;;;;5071588;28;20578;-77
2022/08/22 09:06:25;;;;;;;3.33;0.70;;;21.70;99.90;;;;;;5085133;28;20031;-78
2022/08/22 09:09:12;;;;;;;3.20;0.68;;;22.00;99.90;;;;;;5094552;28;20027;-79
2022/08/22 09:12:18;;;;;;;1.63;0.40;;;22.30;99.90;;;;;;5082763;28;20236;-78
2022/08/22 09:15:21;;;;;;;3.83;0.90;;;22.30;99.90;;;;;;5086453;28;20096;-80
2022/08/22 09:17:59;;;;;;;2.90;0.52;;;22.30;99.90;;;;;;5068885;28;20019;-79
2022/08/22 09:20:37;;;;;;;3.08;0.63;;;22.40;99.90;;;;;;5074474;28;20027;-78
2022/08/22 09:23:30;;;;;;;1.90;0.60;;;22.30;99.90;;;;;;5095196;28;20024;-77
2022/08/22 09:26:04;;;;;;;1.98;0.52;;;22.90;99.90;;;;;;5078608;28;20032;-77
2022/08/22 09:28:52;;;;;;;2.35;0.60;;;23.50;99.90;;;;;;5098177;28;20032;-80
2022/08/22 09:31:39;;;;;;;1.90;0.50;;;24.00;99.90;;;;;;5097410;28;20040;-79
2022/08/22 09:34:31;;;;;;;2.83;0.68;;;24.40;99.90;;;;;;5066255;28;20482;-78
2022/08/22 09:37:18;;;;;;;3.70;0.95;;;24.80;99.90;;;;;;5099146;28;20110;-78
2022/08/22 09:39:59;;;;;;;2.35;0.60;;;24.60;99.90;;;;;;5101723;28;20135;-78
2022/08/22 09:42:34;;;;;;;4.43;0.88;;;24.90;99.90;;;;;;5077701;28;20055;-79
2022/08/22 09:45:19;;;;;;;2.42;0.82;;;24.60;99.90;;;;;;5069214;28;20024;-78
2022/08/22 09:48:03;;;;;;;6.72;1.13;;;25.00;99.90;;;;;;5096789;28;20468;-82
2022/08/22 09:50:51;;;;;;;2.60;0.50;;;25.00;99.90;;;;;;5062380;28;20040;-77
2022/08/22 09:53:48;;;;;;;2.95;0.50;;;25.00;99.90;;;;;;5089004;28;20593;-77
2022/08/22 09:56:25;;;;;;;2.63;0.60;;;25.60;99.90;;;;;;5085275;28;20399;-78
2022/08/22 09:59:05;;;;;;;2.20;0.30;;;25.90;99.90;;;;;;5077869;28;20028;-79
2022/08/22 10:01:47;;;;;;;4.20;0.40;;;26.00;99.90;;;;;;5084320;28;20023;-77
2022/08/22 10:04:43;;;;;;;2.15;0.40;;;26.20;99.90;;;;;;5079104;28;20043;-77
2022/08/22 10:07:27;;;;;;;2.92;0.40;;;26.40;99.90;;;;;;5085944;28;20439;-80
2022/08/22 10:10:40;;;;;;;1.42;0.32;;;26.30;99.90;;;;;;5075210;28;20042;-77
2022/08/22 10:13:12;;;;;;;2.92;0.40;;;26.40;99.90;;;;;;5060228;28;20067;-80
2022/08/22 10:15:53;;;;;;;1.48;0.38;;;25.70;99.90;;;;;;5071575;28;20035;-77
2022/08/22 10:18:42;;;;;;;1.88;0.30;;;25.70;99.90;;;;;;5066656;28;20058;-76
2022/08/22 10:21:37;;;;;;;2.00;0.30;;;25.50;99.90;;;;;;5081208;28;20077;-82
2022/08/22 10:24:18;;;;;;;2.20;0.20;;;25.50;99.90;;;;;;5081416;28;20034;-77
2022/08/22 10:26:51;;;;;;;2.33;0.30;;;25.90;99.90;;;;;;5063996;28;20051;-76
2022/08/22 10:29:29;;;;;;;3.13;0.30;;;25.90;99.90;;;;;;5098175;28;20109;-77
2022/08/22 10:32:04;;;;;;;1.55;0.30;;;25.70;99.90;;;;;;5064301;28;20031;-80
2022/08/22 10:34:36;;;;;;;3.20;0.30;;;25.50;99.90;;;;;;5100417;28;20023;-77
2022/08/22 10:37:29;;;;;;;2.85;0.30;;;25.50;99.90;;;;;;5093302;28;20059;-78
2022/08/22 10:40:17;;;;;;;1.88;0.30;;;25.50;99.90;;;;;;5067441;28;20055;-78
2022/08/22 10:42:45;;;;;;;2.47;0.40;;;25.30;99.90;;;;;;5094629;28;20100;-78
2022/08/22 10:45:28;;;;;;;2.38;0.40;;;25.60;99.90;;;;;;5094152;28;20361;-78
2022/08/22 10:47:57;;;;;;;1.33;0.40;;;25.40;99.90;;;;;;5068297;28;20027;-80
2022/08/22 10:50:32;;;;;;;4.95;0.52;;;25.50;99.90;;;;;;5058568;28;20091;-82
2022/08/22 10:53:31;;;;;;;1.15;0.35;;;25.50;99.90;;;;;;5101965;27;20076;-81
2022/08/22 10:56:08;;;;;;;2.88;0.40;;;25.70;99.90;;;;;;5081459;28;20024;-80
2022/08/22 10:58:55;;;;;;;2.05;0.43;;;25.70;99.90;;;;;;5090175;28;20034;-80
2022/08/22 11:01:25;;;;;;;3.63;0.40;;;25.70;99.90;;;;;;5084174;28;20035;-81
2022/08/22 11:04:08;;;;;;;1.27;0.30;;;26.00;99.90;;;;;;5087344;28;20031;-80
2022/08/22 11:06:50;;;;;;;1.77;0.30;;;26.40;99.90;;;;;;5080259;28;20039;-80
2022/08/22 11:09:37;;;;;;;4.05;0.60;;;26.30;99.90;;;;;;5104161;28;20046;-80
2022/08/22 11:12:14;;;;;;;3.55;0.50;;;25.50;99.90;;;;;;5098910;27;20099;-80
2022/08/22 11:15:08;;;;;;;3.45;0.50;;;26.10;99.90;;;;;;5102282;27;20123;-80
2022/08/22 11:18:00;;;;;;;1.73;0.30;;;26.50;99.90;;;;;;5068599;28;20115;-83
2022/08/22 11:20:57;;;;;;;1.48;0.30;;;26.30;99.90;;;;;;5074487;28;20043;-79
2022/08/22 11:23:47;;;;;;;2.67;0.40;;;26.70;99.90;;;;;;5085309;28;20066;-82
2022/08/22 11:26:49;;;;;;;2.00;0.38;;;27.10;99.90;;;;;;5085853;28;20106;-81
2022/08/22 11:29:38;;;;;;;3.03;0.38;;;26.70;99.90;;;;;;5082735;28;20066;-81
2022/08/22 11:32:29;;;;;;;1.63;0.20;;;26.90;99.90;;;;;;5064876;28;20039;-82
2022/08/22 11:35:04;;;;;;;2.85;0.60;;;27.10;99.90;;;;;;5098414;28;20326;-81
2022/08/22 11:37:38;;;;;;;2.53;0.30;;;27.00;99.90;;;;;;5079423;28;20081;-84
2022/08/22 11:40:20;;;;;;;2.53;0.30;;;27.40;99.90;;;;;;5098999;28;20044;-80
2022/08/22 11:42:52;;;;;;;4.10;0.30;;;27.00;99.90;;;;;;5096038;28;20035;-83
2022/08/22 11:45:25;;;;;;;1.92;0.30;;;27.30;99.90;;;;;;5069044;28;20039;-81
2022/08/22 11:48:01;;;;;;;2.40;0.30;;;27.10;99.90;;;;;;5080856;28;20035;-82
2022/08/22 11:50:42;;;;;;;4.32;0.38;;;26.70;99.90;;;;;;5085454;28;20085;-81
2022/08/22 11:53:38;;;;;;;1.38;0.20;;;26.90;99.90;;;;;;5088395;28;20032;-81
2022/08/22 11:56:22;;;;;;;2.50;0.30;;;26.70;99.90;;;;;;5086159;28;20409;-80
2022/08/22 11:58:54;;;;;;;1.98;0.30;;;27.10;99.90;;;;;;5087696;28;20038;-83
2022/08/22 12:01:43;;;;;;;1.23;0.28;;;27.20;99.90;;;;;;5071597;28;20384;-82
2022/08/22 12:04:19;;;;;;;2.22;0.22;;;27.50;99.90;;;;;;5095461;28;20682;-83
2022/08/22 12:06:47;;;;;;;1.20;0.20;;;27.80;99.90;;;;;;5098324;28;20031;-79
2022/08/22 12:09:53;;;;;;;2.10;0.20;;;28.40;99.90;;;;;;5079616;28;20615;-81
2022/08/22 12:12:50;;;;;;;0.88;0.20;;;28.40;99.90;;;;;;5077664;28;20477;-81
2022/08/22 12:15:31;;;;;;;1.88;0.20;;;28.50;99.90;;;;;;5066108;28;20027;-82
2022/08/22 12:18:19;;;;;;;2.15;0.20;;;28.50;99.90;;;;;;5080228;28;20042;-80
2022/08/22 12:20:54;;;;;;;1.83;0.40;;;27.80;99.90;;;;;;5078063;28;20035;-84
2022/08/22 12:23:39;;;;;;;1.80;0.20;;;27.80;99.90;;;;;;5078720;28;20024;-83
2022/08/22 12:26:46;;;;;;;0.80;0.10;;;27.80;99.90;;;;;;5087663;28;20043;-80
2022/08/22 12:29:38;;;;;;;1.45;0.20;;;27.90;99.90;;;;;;5040189;28;20054;-81
2022/08/22 12:32:49;;;;;;;1.80;0.20;;;27.80;99.90;;;;;;5069479;28;20035;-80
2022/08/22 12:35:32;;;;;;;1.33;0.20;;;27.60;99.90;;;;;;5083694;28;20098;-82
2022/08/22 12:38:25;;;;;;;1.58;0.20;;;27.60;99.90;;;;;;5063782;28;20043;-80
2022/08/22 12:41:14;;;;;;;1.95;0.30;;;28.00;99.90;;;;;;5081884;28;20796;-81
2022/08/22 12:44:16;;;;;;;2.13;0.20;;;27.90;99.90;;;;;;5064135;28;20631;-80
2022/08/22 12:47:01;;;;;;;1.95;0.25;;;27.60;99.90;;;;;;5083694;28;20023;-81
2022/08/22 12:49:44;;;;;;;1.40;0.20;;;27.70;99.90;;;;;;5102799;28;20035;-81
2022/08/22 12:52:23;;;;;;;1.85;0.30;;;27.10;99.90;;;;;;5081018;28;20024;-80
2022/08/22 12:55:19;;;;;;;2.28;0.40;;;26.60;99.90;;;;;;5078576;28;20042;-81
2022/08/22 12:58:10;;;;;;;4.10;0.50;;;26.50;99.90;;;;;;5079167;28;20056;-81
2022/08/22 13:00:38;;;;;;;1.60;0.30;;;26.20;99.90;;;;;;5068382;28;20034;-82
2022/08/22 13:03:12;;;;;;;4.55;0.47;;;26.40;99.90;;;;;;5102659;28;20032;-81
2022/08/22 13:05:43;;;;;;;1.33;0.30;;;26.40;99.90;;;;;;5081842;28;20088;-82
2022/08/22 13:08:20;;;;;;;1.88;0.20;;;26.80;99.90;;;;;;5083980;28;20032;-80
2022/08/22 13:10:57;;;;;;;1.25;0.30;;;26.90;99.90;;;;;;5088686;28;20035;-80
2022/08/22 13:13:31;;;;;;;1.13;0.20;;;26.90;99.90;;;;;;5069892;28;20054;-81
2022/08/22 13:16:18;;;;;;;1.65;0.20;;;26.80;99.90;;;;;;5094565;28;20040;-81
2022/08/22 13:18:59;;;;;;;2.22;0.30;;;26.60;99.90;;;;;;5093022;28;20039;-81
2022/08/22 13:21:34;;;;;;;1.42;0.30;;;26.60;99.90;;;;;;5089032;28;20032;-82
2022/08/22 13:24:13;;;;;;;1.60;0.30;;;26.80;99.90;;;;;;5086294;28;20028;-81
2022/08/22 13:26:47;;;;;;;1.40;0.30;;;26.90;99.90;;;;;;5080795;28;20517;-82
2022/08/22 13:29:26;;;;;;;3.25;0.40;;;26.90;99.90;;;;;;5101540;28;20024;-80
2022/08/22 13:32:00;;;;;;;1.60;0.30;;;26.50;99.90;;;;;;5053449;28;20391;-80
2022/08/22 13:34:37;;;;;;;2.40;0.32;;;26.40;99.90;;;;;;5097236;28;20068;-81
2022/08/22 13:37:03;;;;;;;1.88;0.30;;;26.50;99.90;;;;;;5083224;28;20035;-81
2022/08/22 13:39:36;;;;;;;1.70;0.30;;;26.80;99.90;;;;;;5080719;28;20084;-80
2022/08/22 13:42:05;;;;;;;1.83;0.30;;;27.00;99.90;;;;;;5086270;28;20024;-81
2022/08/22 13:44:44;;;;;;;1.30;0.20;;;27.20;99.90;;;;;;5097199;28;20534;-80
2022/08/22 13:47:15;;;;;;;0.77;0.20;;;27.80;99.90;;;;;;5066682;28;20085;-83
2022/08/22 13:49:53;;;;;;;1.60;0.30;;;28.10;99.90;;;;;;5071917;28;20043;-80
2022/08/22 13:52:34;;;;;;;1.17;0.17;;;27.60;99.90;;;;;;5082455;28;20023;-81
2022/08/22 13:55:10;;;;;;;1.92;0.20;;;27.90;99.90;;;;;;5066789;28;20434;-81
2022/08/22 13:57:46;;;;;;;3.20;0.30;;;27.50;99.90;;;;;;5087007;28;20063;-82
2022/08/22 14:00:18;;;;;;;2.35;0.30;;;26.80;99.90;;;;;;5088808;28;20086;-82
2022/08/22 14:03:13;;;;;;;1.80;0.30;;;26.70;99.90;;;;;;5067034;28;20103;-82
2022/08/22 14:05:44;;;;;;;3.53;0.40;;;26.60;99.90;;;;;;5093830;28;20422;-79